createdAt,value
2022-12-03T00:02:18.873Z,12.92
2022-12-03T00:04:45.568Z,12.85
2022-12-03T00:07:12.112Z,12.86
2022-12-03T00:09:39.052Z,12.90
2022-12-03T00:12:05.999Z,12.85
2022-12-03T00:14:32.697Z,12.82
2022-12-03T00:16:59.804Z,12.85
2022-12-03T00:19:26.412Z,12.84
2022-12-03T00:21:53.073Z,12.82
2022-12-03T00:24:19.723Z,12.90
2022-12-03T00:26:46.534Z,12.81
2022-12-03T00:29:13.237Z,12.83
2022-12-03T00:31:39.979Z,12.90
2022-12-03T00:34:06.877Z,12.81
2022-12-03T00:36:33.722Z,12.83
2022-12-03T00:39:00.677Z,12.87
2022-12-03T00:41:27.353Z,12.74
2022-12-03T00:43:57.541Z,12.70
2022-12-03T00:46:25.367Z,12.67
2022-12-03T00:48:52.373Z,12.76
2022-12-03T00:51:19.755Z,12.82
2022-12-03T00:53:46.460Z,12.78
2022-12-03T00:56:13.259Z,12.74
2022-12-03T00:58:39.982Z,12.69
2022-12-03T01:01:06.754Z,12.71
2022-12-03T01:03:33.626Z,12.67
2022-12-03T01:06:00.445Z,12.68
2022-12-03T01:08:27.151Z,12.61
2022-12-03T01:10:53.734Z,12.66
2022-12-03T01:13:20.415Z,12.68
2022-12-03T01:15:47.136Z,12.75
2022-12-03T01:18:13.803Z,12.62
2022-12-03T01:20:40.833Z,12.67
2022-12-03T01:23:07.651Z,12.62
2022-12-03T01:25:34.524Z,12.66
2022-12-03T01:28:01.189Z,12.64
2022-12-03T01:30:27.927Z,12.61
2022-12-03T01:32:54.626Z,12.61
2022-12-03T01:35:21.272Z,12.52
2022-12-03T01:37:47.886Z,12.48
2022-12-03T01:40:20.094Z,12.49
2022-12-03T01:42:46.991Z,12.42
2022-12-03T01:45:22.481Z,12.55
2022-12-03T01:47:49.465Z,12.50
2022-12-03T01:50:33.199Z,12.62
2022-12-03T01:53:02.596Z,12.55
2022-12-03T01:55:29.724Z,12.52
2022-12-03T01:58:00.683Z,12.46
2022-12-03T02:00:28.597Z,12.50
2022-12-03T02:02:59.395Z,12.41
2022-12-03T02:05:28.901Z,12.38
2022-12-03T02:07:55.664Z,12.41
2022-12-03T02:10:42.606Z,12.38
2022-12-03T02:13:10.642Z,12.44
2022-12-03T02:15:39.997Z,12.50
2022-12-03T02:18:09.064Z,12.49
2022-12-03T02:20:47.042Z,12.43
2022-12-03T02:23:24.074Z,12.48
2022-12-03T02:25:50.768Z,12.39
2022-12-03T02:28:17.550Z,12.47
2022-12-03T02:30:44.340Z,12.42
2022-12-03T02:33:11.353Z,12.43
2022-12-03T02:35:38.796Z,12.39
2022-12-03T02:38:16.882Z,12.39
2022-12-03T02:40:47.217Z,12.34
2022-12-03T02:43:16.817Z,12.40
2022-12-03T02:45:46.264Z,12.40
2022-12-03T02:48:12.746Z,12.35
2022-12-03T02:50:43.525Z,12.30
2022-12-03T02:53:16.413Z,12.30
2022-12-03T02:55:43.337Z,12.29
2022-12-03T02:58:11.541Z,12.29
2022-12-03T03:00:39.323Z,12.26
2022-12-03T03:03:07.976Z,12.22
2022-12-03T03:05:38.281Z,12.18
2022-12-03T03:08:06.481Z,12.28
2022-12-03T03:10:35.265Z,12.23
2022-12-03T03:13:04.433Z,12.25
2022-12-03T03:15:31.019Z,12.19
2022-12-03T03:17:57.693Z,12.23
2022-12-03T03:20:24.212Z,12.20
2022-12-03T03:22:50.765Z,12.24
2022-12-03T03:25:21.063Z,12.24
2022-12-03T03:27:47.906Z,12.24
2022-12-03T03:30:16.338Z,12.19
2022-12-03T03:32:43.151Z,12.19
2022-12-03T03:35:11.608Z,12.12
2022-12-03T03:37:39.254Z,12.22
2022-12-03T03:40:07.144Z,12.21
2022-12-03T03:42:34.446Z,12.16
2022-12-03T03:45:01.332Z,12.21
2022-12-03T03:47:27.996Z,12.20
2022-12-03T03:49:54.870Z,12.16
2022-12-03T03:52:22.513Z,12.11
2022-12-03T03:54:49.396Z,12.13
2022-12-03T03:57:15.970Z,12.23
2022-12-03T03:59:43.028Z,12.07
2022-12-03T04:02:24.699Z,11.97
2022-12-03T04:04:52.111Z,12.01
2022-12-03T04:07:18.971Z,11.97
2022-12-03T04:09:45.810Z,12.02
2022-12-03T04:12:32.080Z,12.07
2022-12-03T04:14:59.221Z,12.09
2022-12-03T04:17:26.405Z,11.99
2022-12-03T04:19:52.944Z,11.95
2022-12-03T04:22:38.239Z,11.87
2022-12-03T04:25:26.427Z,11.94
2022-12-03T04:28:12.000Z,11.94
2022-12-03T04:30:39.249Z,12.06
2022-12-03T04:33:24.599Z,12.01
2022-12-03T04:35:51.210Z,11.95
2022-12-03T04:38:17.888Z,11.94
2022-12-03T04:41:03.310Z,11.90
2022-12-03T04:43:34.868Z,11.95
2022-12-03T04:46:02.769Z,11.93
2022-12-03T04:48:29.627Z,11.91
2022-12-03T04:50:56.241Z,11.98
2022-12-03T04:53:22.912Z,11.94
2022-12-03T04:55:49.545Z,11.91
2022-12-03T04:58:16.147Z,11.85
2022-12-03T05:00:42.768Z,11.80
2022-12-03T05:03:09.384Z,11.90
2022-12-03T05:05:36.145Z,11.88
2022-12-03T05:08:03.021Z,11.90
2022-12-03T05:10:29.586Z,11.84
2022-12-03T05:12:56.682Z,11.80
2022-12-03T05:15:23.245Z,11.85
2022-12-03T05:17:49.933Z,11.85
2022-12-03T05:20:35.526Z,11.81
2022-12-03T05:23:02.188Z,11.83
2022-12-03T05:25:28.850Z,11.88
2022-12-03T05:27:55.541Z,11.91
2022-12-03T05:30:22.572Z,11.82
2022-12-03T05:32:49.982Z,11.82
2022-12-03T05:35:16.874Z,11.86
2022-12-03T05:37:43.650Z,11.77
2022-12-03T05:40:11.130Z,11.76
2022-12-03T05:42:56.575Z,11.81
2022-12-03T05:45:30.118Z,11.71
2022-12-03T05:47:57.946Z,11.52
2022-12-03T05:50:27.879Z,11.65
2022-12-03T05:52:55.384Z,11.72
2022-12-03T05:55:22.460Z,11.74
2022-12-03T05:57:49.317Z,11.77
2022-12-03T06:00:19.415Z,11.78
2022-12-03T06:02:48.878Z,11.72
2022-12-03T06:05:17.072Z,11.66
2022-12-03T06:07:43.717Z,11.67
2022-12-03T06:10:12.796Z,11.70
2022-12-03T06:12:40.186Z,11.64
2022-12-03T06:15:08.591Z,11.68
2022-12-03T06:17:35.249Z,11.56
2022-12-03T06:20:01.999Z,11.53
2022-12-03T06:22:28.753Z,11.73
2022-12-03T06:24:55.690Z,11.64
2022-12-03T06:27:23.121Z,11.68
2022-12-03T06:29:49.861Z,11.59
2022-12-03T06:32:16.604Z,11.57
2022-12-03T06:34:43.408Z,11.54
2022-12-03T06:37:10.162Z,11.57
2022-12-03T06:39:36.727Z,11.58
2022-12-03T06:42:03.384Z,11.55
2022-12-03T06:44:30.008Z,11.54
2022-12-03T06:46:56.787Z,11.58
2022-12-03T06:49:23.491Z,11.51
2022-12-03T06:51:50.143Z,11.49
2022-12-03T06:54:17.089Z,11.54
2022-12-03T06:56:45.629Z,11.52
2022-12-03T06:59:12.726Z,11.44
2022-12-03T07:01:39.580Z,11.55
2022-12-03T07:04:06.253Z,11.51
2022-12-03T07:06:32.944Z,11.52
2022-12-03T07:08:59.736Z,11.52
2022-12-03T07:11:39.856Z,11.59
2022-12-03T07:14:08.310Z,11.55
2022-12-03T07:16:35.925Z,11.49
2022-12-03T07:19:04.214Z,11.44
2022-12-03T07:21:30.905Z,11.51
2022-12-03T07:23:57.508Z,11.52
2022-12-03T07:26:24.056Z,11.47
2022-12-03T07:28:50.688Z,11.51
2022-12-03T07:31:17.546Z,11.44
2022-12-03T07:33:44.661Z,11.41
2022-12-03T07:36:11.438Z,11.47
2022-12-03T07:38:38.737Z,11.49
2022-12-03T07:41:05.743Z,11.49
2022-12-03T07:43:32.684Z,11.52
2022-12-03T07:45:59.522Z,11.40
2022-12-03T07:48:27.198Z,11.38
2022-12-03T07:50:54.196Z,11.39
2022-12-03T07:53:21.114Z,11.40
2022-12-03T07:55:47.854Z,11.33
2022-12-03T07:58:14.658Z,11.38
2022-12-03T08:00:41.537Z,11.32
2022-12-03T08:03:08.454Z,11.36
2022-12-03T08:05:35.053Z,11.31
2022-12-03T08:08:01.980Z,11.22
2022-12-03T08:10:28.639Z,11.20
2022-12-03T08:12:58.135Z,11.26
2022-12-03T08:15:25.314Z,11.29
2022-12-03T08:17:55.949Z,11.39
2022-12-03T08:20:25.395Z,11.45
2022-12-03T08:22:53.421Z,11.52
2022-12-03T08:25:31.523Z,11.58
2022-12-03T08:28:11.116Z,11.59
2022-12-03T08:30:37.944Z,11.56
2022-12-03T08:33:16.508Z,11.57
2022-12-03T08:35:49.818Z,11.55
2022-12-03T08:38:16.856Z,11.52
2022-12-03T08:40:46.036Z,11.56
2022-12-03T08:43:27.100Z,11.61
2022-12-03T08:45:57.450Z,11.65
2022-12-03T08:48:28.727Z,11.89
2022-12-03T08:50:58.054Z,11.99
2022-12-03T08:53:35.837Z,12.08
2022-12-03T08:56:19.303Z,11.89
2022-12-03T08:58:53.681Z,11.82
2022-12-03T09:01:44.717Z,11.84
2022-12-03T09:04:21.714Z,11.85
2022-12-03T09:06:48.964Z,11.83
2022-12-03T09:09:16.195Z,11.87
2022-12-03T09:11:46.201Z,12.02
2022-12-03T09:14:18.291Z,12.20
2022-12-03T09:16:45.346Z,12.20
2022-12-03T09:19:12.139Z,12.32
2022-12-03T09:21:38.718Z,12.32
2022-12-03T09:24:05.660Z,12.28
2022-12-03T09:26:32.339Z,12.14
2022-12-03T09:28:58.912Z,12.06
2022-12-03T09:31:25.766Z,12.20
2022-12-03T09:33:52.505Z,12.15
2022-12-03T09:36:19.124Z,12.09
2022-12-03T09:38:47.902Z,12.14
2022-12-03T09:41:15.017Z,12.08
2022-12-03T09:46:29.810Z,12.10
2022-12-03T09:48:56.832Z,12.11
2022-12-03T09:51:27.464Z,12.11
2022-12-03T09:53:54.132Z,12.11
2022-12-03T09:56:23.502Z,12.09
2022-12-03T09:58:50.630Z,12.04
2022-12-03T10:01:18.044Z,12.14
2022-12-03T10:03:49.150Z,12.09
2022-12-03T10:06:24.479Z,12.12
2022-12-03T10:08:54.504Z,12.20
2022-12-03T10:11:24.104Z,12.14
2022-12-03T10:13:54.076Z,12.24
2022-12-03T10:16:21.288Z,12.09
2022-12-03T10:18:54.536Z,12.14
2022-12-03T10:21:29.678Z,12.11
2022-12-03T10:24:32.528Z,12.13
2022-12-03T10:27:02.407Z,12.20
2022-12-03T10:29:35.016Z,12.13
2022-12-03T10:32:07.511Z,12.16
2022-12-03T10:34:39.511Z,12.16
2022-12-03T10:37:20.332Z,12.12
2022-12-03T10:39:56.043Z,12.18
2022-12-03T10:42:24.219Z,12.18
2022-12-03T10:45:20.133Z,12.19
2022-12-03T10:48:11.578Z,12.24
2022-12-03T10:50:48.652Z,12.27
2022-12-03T10:53:16.342Z,12.22
2022-12-03T10:55:45.463Z,12.16
2022-12-03T10:58:21.648Z,12.22
2022-12-03T11:00:49.987Z,12.26
2022-12-03T11:03:31.034Z,12.23
2022-12-03T11:06:00.637Z,12.18
2022-12-03T11:08:30.822Z,12.24
2022-12-03T11:11:05.994Z,12.22
2022-12-03T11:13:32.845Z,12.24
2022-12-03T11:16:04.546Z,12.26
2022-12-03T11:18:37.677Z,12.24
2022-12-03T11:21:06.450Z,12.21
2022-12-03T11:23:45.495Z,12.30
2022-12-03T11:26:36.112Z,12.29
2022-12-03T11:29:03.561Z,12.29
2022-12-03T11:31:44.189Z,12.33
2022-12-03T11:34:19.847Z,12.26
2022-12-03T11:37:16.361Z,12.39
2022-12-03T11:39:52.677Z,12.50
2022-12-03T11:42:28.627Z,12.68
2022-12-03T11:45:04.057Z,12.64
2022-12-03T11:47:38.703Z,12.76
2022-12-03T11:50:23.825Z,12.74
2022-12-03T11:52:59.981Z,12.61
2022-12-03T11:56:06.005Z,12.47
2022-12-03T11:58:33.706Z,12.48
2022-12-03T12:01:02.904Z,12.45
2022-12-03T12:03:37.102Z,12.48
2022-12-03T12:06:08.864Z,12.45
2022-12-03T12:08:38.132Z,12.41
2022-12-03T12:11:17.010Z,12.47
2022-12-03T12:13:43.609Z,12.44
2022-12-03T12:16:11.538Z,12.51
2022-12-03T12:18:44.093Z,12.48
2022-12-03T12:21:42.026Z,12.49
2022-12-03T12:24:53.848Z,12.48
2022-12-03T12:27:30.892Z,12.42
2022-12-03T12:30:00.204Z,12.47
2022-12-03T12:32:45.496Z,12.44
2022-12-03T12:35:24.028Z,12.47
2022-12-03T12:38:00.250Z,12.48
2022-12-03T12:40:30.519Z,12.42
2022-12-03T12:43:10.024Z,12.41
2022-12-03T12:45:42.000Z,12.56
2022-12-03T12:48:11.321Z,12.50
2022-12-03T12:50:38.536Z,12.45
2022-12-03T12:53:11.185Z,12.45
2022-12-03T12:55:41.330Z,12.50
2022-12-03T12:58:14.886Z,12.48
2022-12-03T13:00:42.626Z,12.44
2022-12-03T13:03:12.736Z,12.55
2022-12-03T13:05:42.664Z,12.48
2022-12-03T13:08:37.597Z,12.49
2022-12-03T13:11:04.855Z,12.47
2022-12-03T13:13:43.671Z,12.42
2022-12-03T13:16:26.390Z,12.48
2022-12-03T13:18:56.997Z,12.49
2022-12-03T13:21:44.534Z,12.46
2022-12-03T13:24:32.585Z,12.45
2022-12-03T13:27:05.025Z,12.53
2022-12-03T13:29:32.209Z,12.60
2022-12-03T13:32:01.707Z,12.52
2022-12-03T13:34:33.931Z,12.52
2022-12-03T13:37:12.392Z,12.59
2022-12-03T13:39:45.564Z,12.55
2022-12-03T13:42:46.454Z,12.54
2022-12-03T13:45:15.937Z,12.59
2022-12-03T13:47:47.486Z,12.60
2022-12-03T13:50:33.304Z,12.83
2022-12-03T13:53:15.693Z,12.83
2022-12-03T13:55:47.555Z,12.63
2022-12-03T13:58:14.300Z,12.51
2022-12-03T14:00:40.997Z,12.41
2022-12-03T14:03:07.650Z,12.48
2022-12-03T14:05:34.490Z,12.46
2022-12-03T14:08:04.857Z,12.45
2022-12-03T14:10:32.035Z,12.54
2022-12-03T14:12:58.889Z,12.59
2022-12-03T14:15:26.443Z,12.43
2022-12-03T14:17:53.055Z,12.46
2022-12-03T14:20:19.927Z,12.52
2022-12-03T14:22:46.682Z,12.42
2022-12-03T14:25:15.028Z,12.42
2022-12-03T14:27:41.659Z,12.46
2022-12-03T14:30:09.213Z,12.37
2022-12-03T14:32:36.059Z,12.34
2022-12-03T14:35:08.134Z,12.37
2022-12-03T14:37:36.579Z,12.44
2022-12-03T14:40:03.917Z,12.43
2022-12-03T14:42:30.561Z,12.42
2022-12-03T14:44:57.121Z,12.40
2022-12-03T14:47:23.809Z,12.45
2022-12-03T14:49:51.930Z,12.46
2022-12-03T14:52:19.316Z,12.42
2022-12-03T14:54:46.016Z,12.41
2022-12-03T14:57:13.785Z,12.50
2022-12-03T14:59:41.566Z,12.44
2022-12-03T15:02:09.242Z,12.43
2022-12-03T15:04:37.216Z,12.47
2022-12-03T15:07:04.543Z,12.50
2022-12-03T15:09:31.072Z,12.48
2022-12-03T15:11:57.768Z,12.43
2022-12-03T15:14:24.432Z,12.41
2022-12-03T15:16:51.209Z,12.51
2022-12-03T15:19:18.088Z,12.42
2022-12-03T15:21:45.579Z,12.46
2022-12-03T15:24:12.451Z,12.70
2022-12-03T15:26:39.213Z,13.06
2022-12-03T15:29:05.945Z,13.34
2022-12-03T15:31:32.682Z,13.44
2022-12-03T15:33:59.320Z,13.62
2022-12-03T15:36:25.964Z,13.75
2022-12-03T15:38:52.685Z,13.80
2022-12-03T15:41:24.468Z,13.91
2022-12-03T15:43:52.561Z,14.00
2022-12-03T15:46:20.297Z,14.10
2022-12-03T15:48:47.389Z,14.22
2022-12-03T15:51:14.426Z,14.24
2022-12-03T15:53:41.291Z,14.36
2022-12-03T15:56:08.503Z,14.35
2022-12-03T15:58:35.060Z,13.87
2022-12-03T16:01:01.935Z,13.50
2022-12-03T16:03:28.862Z,13.39
2022-12-03T16:05:55.815Z,13.23
2022-12-03T16:08:22.914Z,13.18
2022-12-03T16:10:49.891Z,13.17
2022-12-03T16:13:16.719Z,13.16
2022-12-03T16:15:44.109Z,13.12
2022-12-03T16:18:11.022Z,13.20
2022-12-03T16:20:39.329Z,13.08
2022-12-03T16:23:06.257Z,13.12
2022-12-03T16:25:33.070Z,13.02
2022-12-03T16:27:59.885Z,12.99
2022-12-03T16:30:26.826Z,12.89
2022-12-03T16:32:53.731Z,12.86
2022-12-03T16:35:20.992Z,12.95
2022-12-03T16:37:47.585Z,12.90
2022-12-03T16:40:14.462Z,12.87
2022-12-03T16:42:41.330Z,12.90
2022-12-03T16:45:09.543Z,12.97
2022-12-03T16:47:36.679Z,12.95
2022-12-03T16:50:07.513Z,13.00
2022-12-03T16:52:35.209Z,12.87
2022-12-03T16:55:02.108Z,12.87
2022-12-03T16:57:33.494Z,12.87
2022-12-03T17:00:01.027Z,12.93
2022-12-03T17:02:28.128Z,12.90
2022-12-03T17:04:55.059Z,12.91
2022-12-03T17:07:21.708Z,12.87
2022-12-03T17:09:48.757Z,12.87
2022-12-03T17:12:15.524Z,12.85
2022-12-03T17:14:42.124Z,12.96
2022-12-03T17:17:08.902Z,13.38
2022-12-03T17:19:35.812Z,13.75
2022-12-03T17:22:02.630Z,13.89
2022-12-03T17:24:29.399Z,14.02
2022-12-03T17:26:56.187Z,14.10
2022-12-03T17:29:22.741Z,14.25
2022-12-03T17:31:49.512Z,14.31
2022-12-03T17:34:16.276Z,14.38
2022-12-03T17:36:42.896Z,14.46
2022-12-03T17:39:09.516Z,14.46
2022-12-03T17:41:36.388Z,14.61
2022-12-03T17:44:09.702Z,14.58
2022-12-03T17:46:37.628Z,14.63
2022-12-03T17:49:04.444Z,14.73
2022-12-03T17:51:31.167Z,14.79
2022-12-03T17:53:57.911Z,14.84
2022-12-03T17:56:24.747Z,14.86
2022-12-03T17:58:51.510Z,15.01
2022-12-03T18:01:18.134Z,14.97
2022-12-03T18:03:44.834Z,14.73
2022-12-03T18:06:11.506Z,14.30
2022-12-03T18:08:38.076Z,14.03
2022-12-03T18:11:05.044Z,13.88
2022-12-03T18:13:31.797Z,13.81
2022-12-03T18:15:58.617Z,13.77
2022-12-03T18:18:25.354Z,13.74
2022-12-03T18:20:53.607Z,13.80
2022-12-03T18:23:20.592Z,13.67
2022-12-03T18:25:47.356Z,13.62
2022-12-03T18:28:14.133Z,13.65
2022-12-03T18:30:40.931Z,13.57
2022-12-03T18:33:07.732Z,13.54
2022-12-03T18:35:34.381Z,13.54
2022-12-03T18:38:01.223Z,13.53
2022-12-03T18:40:27.969Z,13.46
2022-12-03T18:42:56.615Z,13.46
2022-12-03T18:45:23.352Z,13.46
2022-12-03T18:47:50.221Z,13.43
2022-12-03T18:50:17.255Z,13.42
2022-12-03T18:52:44.046Z,13.45
2022-12-03T18:55:18.610Z,13.39
2022-12-03T18:57:45.760Z,13.44
2022-12-03T19:00:13.868Z,13.41
2022-12-03T19:05:28.173Z,13.33
2022-12-03T19:07:58.040Z,13.33
2022-12-03T19:10:25.223Z,13.33
2022-12-03T19:12:51.930Z,13.34
2022-12-03T19:15:18.889Z,13.43
2022-12-03T19:17:49.746Z,13.40
2022-12-03T19:20:16.408Z,13.35
2022-12-03T19:22:43.097Z,13.34
2022-12-03T19:25:09.924Z,13.36
2022-12-03T19:27:36.691Z,13.29
2022-12-03T19:30:04.204Z,13.32
2022-12-03T19:32:30.917Z,13.42
2022-12-03T19:34:57.705Z,13.31
2022-12-03T19:37:24.347Z,13.28
2022-12-03T19:39:53.781Z,13.31
2022-12-03T19:42:20.720Z,13.39
2022-12-03T19:44:47.394Z,13.43
2022-12-03T19:47:14.112Z,13.36
2022-12-03T19:49:40.794Z,13.34
2022-12-03T19:52:07.460Z,13.34
2022-12-03T19:54:34.105Z,13.31
2022-12-03T19:57:00.867Z,13.36
2022-12-03T19:59:27.621Z,13.42
2022-12-03T20:01:54.487Z,13.33
2022-12-03T20:04:21.124Z,13.24
2022-12-03T20:06:48.549Z,13.27
2022-12-03T20:09:17.758Z,13.30
2022-12-03T20:11:45.926Z,13.31
2022-12-03T20:14:15.356Z,13.27
2022-12-03T20:16:43.322Z,13.27
2022-12-03T20:19:12.816Z,13.32
2022-12-03T20:21:40.281Z,13.29
2022-12-03T20:24:15.036Z,13.26
2022-12-03T20:26:41.832Z,13.25
2022-12-03T20:29:08.843Z,13.21
2022-12-03T20:31:35.664Z,13.21
2022-12-03T20:34:04.021Z,13.26
2022-12-03T20:36:31.911Z,13.24
2022-12-03T20:39:01.521Z,13.20
2022-12-03T20:41:28.597Z,13.19
2022-12-03T20:43:56.004Z,13.17
2022-12-03T20:46:28.796Z,13.18
2022-12-03T20:48:56.388Z,13.21
2022-12-03T20:51:29.660Z,13.18
2022-12-03T20:53:57.455Z,13.19
2022-12-03T20:56:31.269Z,13.13
2022-12-03T20:59:04.843Z,13.17
2022-12-03T21:01:31.781Z,13.11
2022-12-03T21:03:58.626Z,13.20
2022-12-03T21:06:30.794Z,13.19
2022-12-03T21:08:59.085Z,13.17
2022-12-03T21:11:29.703Z,13.16
2022-12-03T21:13:57.051Z,13.17
2022-12-03T21:16:52.534Z,13.23
2022-12-03T21:19:17.538Z,13.28
2022-12-03T21:21:44.165Z,13.23
2022-12-03T21:24:11.680Z,13.21
2022-12-03T21:26:38.584Z,13.31
2022-12-03T21:29:05.369Z,13.23
2022-12-03T21:31:32.565Z,13.27
2022-12-03T21:33:59.332Z,13.25
2022-12-03T21:36:26.084Z,13.27
2022-12-03T21:38:52.755Z,13.21
2022-12-03T21:41:19.498Z,13.23
2022-12-03T21:43:46.254Z,13.28
2022-12-03T21:47:08.101Z,13.25
2022-12-03T21:49:04.012Z,13.16
2022-12-03T21:51:30.809Z,13.10
2022-12-03T21:53:57.570Z,13.07
2022-12-03T21:56:24.498Z,13.14
2022-12-03T21:58:51.291Z,13.23
2022-12-03T22:01:21.725Z,13.13
2022-12-03T22:03:48.922Z,13.11
2022-12-03T22:06:16.661Z,13.08
2022-12-03T22:08:43.702Z,13.19
2022-12-03T22:11:13.335Z,13.15
2022-12-03T22:13:40.819Z,13.14
2022-12-03T22:16:11.395Z,13.13
2022-12-03T22:18:39.056Z,13.20
2022-12-03T22:21:07.482Z,13.18
2022-12-03T22:23:34.740Z,13.25
2022-12-03T22:26:04.914Z,13.26
2022-12-03T22:28:32.699Z,13.84
2022-12-03T22:30:59.685Z,14.18
2022-12-03T22:33:26.452Z,14.25
2022-12-03T22:36:01.553Z,14.37
2022-12-03T22:38:30.165Z,14.46
2022-12-03T22:40:57.384Z,14.51
2022-12-03T22:43:24.597Z,14.63
2022-12-03T22:45:55.567Z,14.67
2022-12-03T22:48:24.002Z,14.73
2022-12-03T22:50:52.524Z,14.81
2022-12-03T22:53:19.913Z,14.84
2022-12-03T22:55:55.076Z,14.93
2022-12-03T22:58:21.790Z,14.98
2022-12-03T23:00:48.436Z,14.99
2022-12-03T23:03:15.263Z,14.99
2022-12-03T23:05:42.165Z,14.84
2022-12-03T23:08:12.027Z,14.50
2022-12-03T23:10:41.632Z,14.07
2022-12-03T23:13:09.517Z,13.92
2022-12-03T23:15:36.569Z,13.91
2022-12-03T23:18:03.546Z,13.79
2022-12-03T23:20:30.190Z,13.81
2022-12-03T23:22:56.715Z,13.66
2022-12-03T23:25:23.380Z,13.60
2022-12-03T23:27:50.133Z,13.57
2022-12-03T23:30:17.121Z,13.57
2022-12-03T23:32:44.472Z,13.58
2022-12-03T23:35:12.281Z,13.54
2022-12-03T23:37:38.983Z,13.49
2022-12-03T23:40:06.459Z,13.40
2022-12-03T23:42:33.142Z,13.50
2022-12-03T23:44:59.827Z,13.39
2022-12-03T23:47:26.465Z,13.42
2022-12-03T23:49:53.499Z,13.36
2022-12-03T23:52:20.528Z,13.39
2022-12-03T23:54:47.301Z,13.34
2022-12-03T23:57:14.095Z,13.29
2022-12-03T23:59:42.073Z,13.33
